Thunderstorms From: 15-12-2017 06:00 Until: 16-12-2017 06:00 warning for: Thunderstorms Level: Yellow info button

Although rather usual in this region, locally or potentially dangerous phenomena are expected. (such as local winds, summer thunderstorms, rising streams or high waves) Be aware and pay attention to the latest weather updates, especially if you carry out activities exposed to weather or close to a stream or shoreline. 


Meteo18 Weather Cam more information Meteo18 Weather Cam


warning for Thunderstorms more information blitzortung!


Rain radar more information rain snow radar


Visit our other weather sites:

Template documentation
and downloads

And another site



Weather Underground History page Text

Daily Summary for October 29, 2017 Units:  Metric    English   Both
« Previous Day
Next Day »
Daily Weekly Monthly Yearly Custom
  High: Low: Average:
Temperature: 12.8 °C 5.3 °C 9.9 °C
Dew Point: 11.7 °C 4.3 °C 8.9 °C
Humidity: 96 % 89 % 94 %
Wind Speed: 22.5 km/h 0.0 km/h 5.5 km/h
Wind Gust: 27.4 km/h - -
Wind:- - SSW
Pressure: 1027.3 hPa 1021.2 hPa -
Precipitation: 0.5 mm    
Historical Graphs
 
 
Tabular Data for October 29, 2017
Time Temperature Dew Point Pressure Wind Wind Speed Wind Gust Humidity Rainfall Rate (Hourly)
00:02 5.8 °C 4.6 °C 1027.3 hPa Calm   1.6 km/h 92 % 0.0 mm
00:12 5.5 °C 4.3 °C 1027.3 hPa Calm   1.6 km/h 92 % 0.0 mm
00:17 5.5 °C 4.5 °C 1027.0 hPa Calm   1.6 km/h 93 % 0.0 mm
00:22 5.4 °C 4.4 °C 1027.0 hPa Calm   3.2 km/h 93 % 0.0 mm
00:27 5.4 °C 4.4 °C 1027.0 hPa Calm   3.2 km/h 93 % 0.0 mm
00:32 5.3 °C 4.3 °C 1027.0 hPa SSE 1.6 km/h 1.6 km/h 93 % 0.0 mm
00:42 5.4 °C 4.5 °C 1026.6 hPa SW 4.8 km/h 4.8 km/h 94 % 0.0 mm
00:52 7.0 °C 5.9 °C 1026.6 hPa SW 4.8 km/h 8.0 km/h 93 % 0.0 mm
01:02 7.3 °C 5.8 °C 1026.6 hPa SSW 1.6 km/h 9.7 km/h 90 % 0.0 mm
01:12 6.8 °C 5.4 °C 1026.6 hPa SSW 4.8 km/h 9.7 km/h 91 % 0.0 mm
01:17 6.7 °C 5.5 °C 1026.6 hPa SW 6.4 km/h -1607.4 km/h 92 % 0.0 mm
01:22 6.7 °C 5.5 °C 1026.6 hPa SW 3.2 km/h -1607.4 km/h 92 % 0.0 mm
01:27 6.8 °C 5.6 °C 1026.6 hPa WSW 3.2 km/h -1607.4 km/h 92 % 0.0 mm
01:32 6.9 °C 5.7 °C 1026.6 hPa SW 3.2 km/h -1607.4 km/h 92 % 0.0 mm
01:37 7.1 °C 5.9 °C 1026.6 hPa SW 1.6 km/h -1607.4 km/h 92 % 0.0 mm
01:42 7.2 °C 6.0 °C 1026.6 hPa WSW 4.8 km/h -1607.4 km/h 92 % 0.0 mm
01:47 7.3 °C 5.9 °C 1026.3 hPa SW 4.8 km/h -1607.4 km/h 91 % 0.0 mm
01:52 7.3 °C 5.9 °C 1026.3 hPa WSW 3.2 km/h -1607.4 km/h 91 % 0.0 mm
01:57 7.4 °C 5.9 °C 1026.3 hPa Calm   -1607.4 km/h 90 % 0.0 mm
02:02 7.4 °C 5.9 °C 1026.3 hPa WSW 3.2 km/h -1607.4 km/h 90 % 0 mm
02:07 7.4 °C 5.9 °C 1026.3 hPa Calm   -1607.4 km/h 90 % 0 mm
02:12 7.4 °C 6.0 °C 1026.3 hPa WSW 3.2 km/h -1607.4 km/h 91 % 0 mm
02:17 7.6 °C 6.1 °C 1026.0 hPa Calm   -1607.4 km/h 90 % 0 mm
02:22 7.6 °C 6.2 °C 1026.0 hPa WNW 1.6 km/h -1607.4 km/h 91 % 0 mm
02:27 7.6 °C 6.2 °C 1026.0 hPa Calm   -1607.4 km/h 91 % 0 mm
02:32 7.6 °C 6.1 °C 1026.0 hPa Calm   -1607.4 km/h 90 % 0 mm
02:37 7.6 °C 6.2 °C 1026.0 hPa Calm   -1607.4 km/h 91 % 0 mm
02:42 7.6 °C 6.2 °C 1026.0 hPa Calm   -1607.4 km/h 91 % 0 mm
02:52 7.6 °C 6.2 °C 1026.0 hPa Calm   -1607.4 km/h 91 % 0 mm
02:57 7.6 °C 6.2 °C 1026.0 hPa Calm   -1607.4 km/h 91 % 0 mm
02:02 7.7 °C 6.3 °C 1026.0 hPa Calm   -1607.4 km/h 91 % 0 mm
02:12 7.7 °C 6.3 °C 1026.0 hPa Calm     91 % 0.0 mm
02:17 7.7 °C 6.5 °C 1026.0 hPa Calm   3.2 km/h 92 % 0.0 mm
02:22 7.8 °C 6.6 °C 1025.6 hPa Calm   3.2 km/h 92 % 0.0 mm
02:27 7.9 °C 6.7 °C 1025.6 hPa SSW 1.6 km/h 8.0 km/h 92 % 0.0 mm
02:32 7.9 °C 6.5 °C 1025.6 hPa SW 1.6 km/h 8.0 km/h 91 % 0.0 mm
02:37 7.8 °C 6.6 °C 1025.6 hPa SW 1.6 km/h 8.0 km/h 92 % 0.0 mm
02:42 7.9 °C 6.7 °C 1025.6 hPa Calm   8.0 km/h 92 % 0.0 mm
02:47 7.9 °C 6.7 °C 1025.6 hPa Calm   8.0 km/h 92 % 0.0 mm
02:52 7.9 °C 6.7 °C 1025.3 hPa SSW 1.6 km/h 8.0 km/h 92 % 0.0 mm
02:57 7.8 °C 6.6 °C 1025.3 hPa SSW 3.2 km/h 6.4 km/h 92 % 0.0 mm
03:02 7.8 °C 6.6 °C 1024.9 hPa SW 3.2 km/h 6.4 km/h 92 % 0.0 mm
03:12 7.8 °C 6.7 °C 1024.9 hPa WSW 6.4 km/h 8.0 km/h 93 % 0.0 mm
03:17 7.8 °C 6.7 °C 1024.6 hPa WSW 8.0 km/h 11.3 km/h 93 % 0.0 mm
03:22 8.0 °C 6.9 °C 1024.6 hPa WSW 6.4 km/h 11.3 km/h 93 % 0.0 mm
03:27 8.1 °C 7.0 °C 1024.6 hPa SW 8.0 km/h 12.9 km/h 93 % 0.0 mm
03:32 8.1 °C 7.0 °C 1024.6 hPa WSW 4.8 km/h 12.9 km/h 93 % 0.0 mm
03:37 8.1 °C 7.0 °C 1024.3 hPa WSW 11.3 km/h 11.3 km/h 93 % 0.0 mm
03:42 8.1 °C 7.0 °C 1024.3 hPa WSW 4.8 km/h 11.3 km/h 93 % 0.0 mm
03:52 8.2 °C 7.1 °C 1024.3 hPa SW 3.2 km/h 14.5 km/h 93 % 0.0 mm
03:57 8.2 °C 7.3 °C 1024.3 hPa SW 3.2 km/h 9.7 km/h 94 % 0.0 mm
04:02 8.2 °C 7.3 °C 1024.3 hPa SW 6.4 km/h 9.7 km/h 94 % 0.0 mm
04:22 8.4 °C 7.5 °C 1024.3 hPa SSW 1.6 km/h 8.0 km/h 94 % 0.0 mm
04:27 7.9 °C 7.0 °C 1024.3 hPa SW 4.8 km/h 4.8 km/h 94 % 0.0 mm
08:37 9.4 °C 8.8 °C 1023.6 hPa WSW 6.4 km/h -1607.4 km/h 96 % 0 mm
08:42 9.5 °C 8.9 °C 1023.6 hPa WSW 6.4 km/h -1607.4 km/h 96 % 0 mm
08:47 9.6 °C 9.0 °C 1023.9 hPa West 1.6 km/h 14.5 km/h 96 % 0.0 mm
08:52 9.6 °C 9.0 °C 1023.9 hPa SSW 4.8 km/h 14.5 km/h 96 % 0.0 mm
09:02 9.6 °C 9.0 °C 1023.9 hPa SW 4.8 km/h 12.9 km/h 96 % 0.0 mm
09:07 9.7 °C 9.1 °C 1023.9 hPa SW 3.2 km/h 11.3 km/h 96 % 0.0 mm
09:12 9.7 °C 9.1 °C 1023.9 hPa WSW 3.2 km/h 11.3 km/h 96 % 0.0 mm
09:17 9.7 °C 9.1 °C 1023.9 hPa Calm   9.7 km/h 96 % 0.0 mm
09:22 9.8 °C 9.2 °C 1023.9 hPa WSW 4.8 km/h 9.7 km/h 96 % 0.0 mm
09:32 9.8 °C 9.2 °C 1023.6 hPa SW 3.2 km/h 8.0 km/h 96 % 0.0 mm
09:37 10.0 °C 9.4 °C 1023.6 hPa WSW 6.4 km/h 11.3 km/h 96 % 0.0 mm
09:42 10.1 °C 9.5 °C 1023.6 hPa SW 3.2 km/h 11.3 km/h 96 % 0.0 mm
09:47 10.1 °C 9.5 °C 1023.6 hPa WSW 6.4 km/h 12.9 km/h 96 % 0.0 mm
09:52 10.1 °C 9.5 °C 1023.6 hPa SW 8.0 km/h 12.9 km/h 96 % 0.0 mm
09:57 10.1 °C 9.5 °C 1023.6 hPa WSW 6.4 km/h 12.9 km/h 96 % 0.0 mm
10:02 10.2 °C 9.6 °C 1023.2 hPa SSW 4.8 km/h 12.9 km/h 96 % 0.0 mm
10:12 10.3 °C 9.7 °C 1023.2 hPa WSW 9.7 km/h 12.9 km/h 96 % 0.0 mm
10:17 10.4 °C 9.8 °C 1023.2 hPa WSW 4.8 km/h 14.5 km/h 96 % 0.0 mm
10:22 10.4 °C 9.8 °C 1023.2 hPa West 8.0 km/h 14.5 km/h 96 % 0.0 mm
10:27 10.5 °C 9.9 °C 1023.2 hPa WSW 4.8 km/h 14.5 km/h 96 % 0.0 mm
10:32 10.5 °C 9.9 °C 1023.2 hPa West 12.9 km/h 14.5 km/h 96 % 0.0 mm
10:42 10.6 °C 10.0 °C 1023.2 hPa WSW 3.2 km/h 16.1 km/h 96 % 0.0 mm
10:47 10.7 °C 10.1 °C 1023.2 hPa SW 8.0 km/h 16.1 km/h 96 % 0.0 mm
10:52 10.8 °C 10.2 °C 1023.2 hPa West 4.8 km/h 16.1 km/h 96 % 0.0 mm
10:57 10.8 °C 10.2 °C 1022.9 hPa West 11.3 km/h 12.9 km/h 96 % 0.0 mm
11:02 10.9 °C 10.3 °C 1022.9 hPa West 8.0 km/h 12.9 km/h 96 % 0.0 mm
11:12 10.9 °C 10.3 °C 1022.9 hPa SW 3.2 km/h 19.3 km/h 96 % 0.0 mm
11:17 11.0 °C 10.4 °C 1022.9 hPa WSW 9.7 km/h 19.3 km/h 96 % 0.0 mm
11:22 10.9 °C 10.3 °C 1022.6 hPa WSW 6.4 km/h 19.3 km/h 96 % 0.0 mm
11:32 11.0 °C 10.4 °C 1022.6 hPa West 8.0 km/h 17.7 km/h 96 % 0.0 mm
11:42 11.1 °C 10.5 °C 1022.6 hPa SSW 6.4 km/h 19.3 km/h 96 % 0.3 mm
11:52 11.2 °C 10.6 °C 1022.6 hPa West 6.4 km/h 17.7 km/h 96 % 0.3 mm
11:57 11.3 °C 10.7 °C 1022.9 hPa WNW 4.8 km/h 17.7 km/h 96 % 0.3 mm
12:02 11.3 °C 10.5 °C 1022.9 hPa West 9.7 km/h 17.7 km/h 95 % 0.3 mm
12:07 11.4 °C 10.6 °C 1022.6 hPa SW 9.7 km/h 17.7 km/h 95 % 0.3 mm
12:12 11.4 °C 10.6 °C 1022.6 hPa WSW 6.4 km/h 17.7 km/h 95 % 0.3 mm
12:17 11.6 °C 10.8 °C 1022.9 hPa WNW 1.6 km/h 14.5 km/h 95 % 0.3 mm
12:22 11.6 °C 10.8 °C 1022.9 hPa West 9.7 km/h 14.5 km/h 95 % 0.3 mm
12:32 11.6 °C 10.8 °C 1022.6 hPa WSW 8.0 km/h 11.3 km/h 95 % 0.0 mm
12:37 11.7 °C 10.9 °C 1022.6 hPa WSW 3.2 km/h 11.3 km/h 95 % 0.0 mm
12:42 11.7 °C 10.9 °C 1022.6 hPa West 6.4 km/h 11.3 km/h 95 % 0.0 mm
12:52 11.8 °C 11.0 °C 1022.2 hPa WNW 4.8 km/h 11.3 km/h 95 % 0.0 mm
13:02 11.9 °C 11.1 °C 1022.2 hPa West 6.4 km/h 14.5 km/h 95 % 0.0 mm
13:12 12.1 °C 11.2 °C 1022.2 hPa West 9.7 km/h 14.5 km/h 94 % 0.0 mm
13:22 12.3 °C 11.4 °C 1021.9 hPa WNW 14.5 km/h 14.5 km/h 94 % 0.0 mm
13:32 12.5 °C 11.2 °C 1021.9 hPa WNW 20.9 km/h 20.9 km/h 92 % 0.0 mm
13:42 12.4 °C 11.1 °C 1021.9 hPa WNW 12.9 km/h 20.9 km/h 92 % 0.0 mm
13:47 12.4 °C 11.1 °C 1021.9 hPa West 11.3 km/h 20.9 km/h 92 % 0.0 mm
13:57 12.4 °C 11.3 °C 1021.9 hPa West 8.0 km/h 24.1 km/h 93 % 0.0 mm
14:07 12.3 °C 11.4 °C 1021.9 hPa West 9.7 km/h 20.9 km/h 94 % 0.0 mm
14:12 12.2 °C 11.3 °C 1021.9 hPa WNW 12.9 km/h 16.1 km/h 94 % 0.0 mm
14:17 12.2 °C 11.3 °C 1021.9 hPa WNW 12.9 km/h 16.1 km/h 94 % 0.0 mm
14:22 12.2 °C 11.3 °C 1021.6 hPa WNW 6.4 km/h 17.7 km/h 94 % 0.0 mm
14:27 12.3 °C 11.2 °C 1021.6 hPa WNW 14.5 km/h 17.7 km/h 93 % 0.0 mm
14:32 12.3 °C 11.4 °C 1021.6 hPa West 1.6 km/h 16.1 km/h 94 % 0.0 mm
14:37 12.3 °C 11.2 °C 1021.6 hPa West 8.0 km/h 16.1 km/h 93 % 0.0 mm
14:42 12.3 °C 11.4 °C 1021.6 hPa West 1.6 km/h 17.7 km/h 94 % 0.0 mm
14:57 12.4 °C 11.5 °C 1021.6 hPa West 3.2 km/h 16.1 km/h 94 % 0.0 mm
15:02 12.5 °C 11.4 °C 1021.6 hPa West 6.4 km/h 16.1 km/h 93 % 0.0 mm
15:07 12.4 °C 11.3 °C 1021.6 hPa West 3.2 km/h 16.1 km/h 93 % 0.0 mm
15:12 12.5 °C 11.4 °C 1021.6 hPa WSW 4.8 km/h 12.9 km/h 93 % 0.0 mm
15:17 12.5 °C 11.4 °C 1021.6 hPa West 4.8 km/h 12.9 km/h 93 % 0.0 mm
15:22 12.5 °C 11.6 °C 1021.6 hPa West 3.2 km/h 14.5 km/h 94 % 0.0 mm
15:32 12.5 °C 11.6 °C 1021.6 hPa WNW 9.7 km/h 14.5 km/h 94 % 0.0 mm
15:42 12.7 °C 11.6 °C 1021.6 hPa West 4.8 km/h 16.1 km/h 93 % 0.0 mm
15:52 12.8 °C 11.7 °C 1021.6 hPa West 8.0 km/h 16.1 km/h 93 % 0.0 mm
16:02 12.8 °C 11.5 °C 1021.6 hPa West 12.9 km/h 17.7 km/h 92 % 0.0 mm
16:12 12.8 °C 11.5 °C 1021.6 hPa WNW 4.8 km/h 14.5 km/h 92 % 0.0 mm
16:17 12.8 °C 11.5 °C 1021.6 hPa West 4.8 km/h 14.5 km/h 92 % 0.0 mm
16:27 12.8 °C 11.5 °C 1021.6 hPa WNW 6.4 km/h 14.5 km/h 92 % 0.0 mm
16:32 12.8 °C 11.5 °C 1021.6 hPa WNW 4.8 km/h 14.5 km/h 92 % 0.0 mm
16:37 12.8 °C 11.7 °C 1021.6 hPa West 4.8 km/h 12.9 km/h 93 % 0.0 mm
16:42 12.8 °C 11.7 °C 1021.6 hPa West 9.7 km/h 12.9 km/h 93 % 0.0 mm
16:47 12.8 °C 11.7 °C 1021.6 hPa SW 4.8 km/h 12.9 km/h 93 % 0.0 mm
16:52 12.8 °C 11.7 °C 1021.6 hPa West 14.5 km/h 14.5 km/h 93 % 0.0 mm
16:57 12.7 °C 11.6 °C 1021.2 hPa West 12.9 km/h 17.7 km/h 93 % 0.0 mm
17:02 12.7 °C 11.6 °C 1021.2 hPa West 4.8 km/h 17.7 km/h 93 % 0.0 mm
17:12 12.6 °C 11.7 °C 1021.2 hPa West 8.0 km/h 17.7 km/h 94 % 0.0 mm
17:17 12.6 °C 11.7 °C 1021.2 hPa West 8.0 km/h 14.5 km/h 94 % 0.0 mm
17:22 12.6 °C 11.7 °C 1021.6 hPa WSW 6.4 km/h 14.5 km/h 94 % 0.0 mm
17:27 12.6 °C 11.7 °C 1021.2 hPa NW 9.7 km/h 14.5 km/h 94 % 0.0 mm
17:32 12.5 °C 11.6 °C 1021.2 hPa WNW 6.4 km/h 14.5 km/h 94 % 0.0 mm
17:37 12.5 °C 11.6 °C 1021.6 hPa West 8.0 km/h 14.5 km/h 94 % 0.0 mm
17:42 12.5 °C 11.6 °C 1021.6 hPa West 6.4 km/h 14.5 km/h 94 % 0.0 mm
17:47 12.6 °C 11.7 °C 1021.6 hPa WNW 4.8 km/h 12.9 km/h 94 % 0.0 mm
17:52 12.4 °C 11.1 °C 1021.9 hPa NNE 12.9 km/h 12.9 km/h 92 % 0.0 mm
18:02 11.6 °C 10.5 °C 1021.9 hPa NNE 16.1 km/h 25.7 km/h 93 % 0.5 mm
18:12 11.3 °C 10.4 °C 1022.2 hPa NNW 12.9 km/h 25.7 km/h 94 % 0.5 mm
18:17 11.0 °C 10.1 °C 1022.2 hPa NNE 22.5 km/h 24.1 km/h 94 % 0.5 mm
18:27 10.6 °C 9.7 °C 1022.6 hPa NW 12.9 km/h 27.4 km/h 94 % 0.5 mm
18:37 10.4 °C 9.6 °C 1022.6 hPa ENE 11.3 km/h 27.4 km/h 95 % 0.5 mm
18:42 10.4 °C 9.6 °C 1022.9 hPa North 9.7 km/h 24.1 km/h 95 % 0.5 mm
18:47 10.3 °C 9.5 °C 1022.9 hPa NE 8.0 km/h 24.1 km/h 95 % 0.5 mm
19:02 10.2 °C 9.4 °C 1023.2 hPa NNE 14.5 km/h 16.1 km/h 95 % 0.0 mm
19:12 10.2 °C 9.4 °C 1022.9 hPa NE 4.8 km/h 16.1 km/h 95 % 0.0 mm
19:22 10.2 °C 9.4 °C 1022.9 hPa NE 8.0 km/h 14.5 km/h 95 % 0.0 mm
19:27 10.2 °C 9.4 °C 1022.9 hPa NE 6.4 km/h 9.7 km/h 95 % 0.0 mm
19:32 10.2 °C 9.4 °C 1022.9 hPa NNE 3.2 km/h 9.7 km/h 95 % 0.0 mm
19:37 10.2 °C 9.4 °C 1023.2 hPa Calm   9.7 km/h 95 % 0.0 mm
19:42 10.1 °C 9.3 °C 1023.2 hPa NE 3.2 km/h 9.7 km/h 95 % 0.0 mm
19:47 10.1 °C 9.3 °C 1023.2 hPa WNW 4.8 km/h 9.7 km/h 95 % 0.0 mm
19:52 10.1 °C 9.3 °C 1023.2 hPa Calm   9.7 km/h 95 % 0.0 mm
19:57 10.1 °C 9.3 °C 1023.2 hPa North 1.6 km/h 9.7 km/h 95 % 0.0 mm
20:02 10.1 °C 9.3 °C 1023.2 hPa North 4.8 km/h 9.7 km/h 95 % 0.0 mm
20:12 10.1 °C 9.3 °C 1023.2 hPa NNE 3.2 km/h 6.4 km/h 95 % 0.0 mm
20:17 10.1 °C 9.3 °C 1023.2 hPa NNE 4.8 km/h 6.4 km/h 95 % 0.0 mm
20:22 10.1 °C 9.3 °C 1023.2 hPa NNW 1.6 km/h 6.4 km/h 95 % 0.0 mm
20:27 10.1 °C 9.3 °C 1023.2 hPa NE 3.2 km/h 9.7 km/h 95 % 0.0 mm
20:32 10.1 °C 9.3 °C 1023.2 hPa North 4.8 km/h 9.7 km/h 95 % 0.0 mm
20:37 10.1 °C 9.3 °C 1023.2 hPa Calm   8.0 km/h 95 % 0.0 mm
20:42 10.0 °C 9.2 °C 1023.2 hPa North 6.4 km/h 8.0 km/h 95 % 0.0 mm
20:52 10.0 °C 9.2 °C 1023.6 hPa NNE 3.2 km/h 9.7 km/h 95 % 0.0 mm
20:57 10.0 °C 9.2 °C 1023.6 hPa NNE 4.8 km/h 11.3 km/h 95 % 0.0 mm
21:02 10.0 °C 9.2 °C 1023.6 hPa NE 6.4 km/h 11.3 km/h 95 % 0.0 mm
21:12 10.0 °C 9.2 °C 1023.6 hPa North 4.8 km/h 11.3 km/h 95 % 0.0 mm
21:17 10.0 °C 9.2 °C 1023.6 hPa North 6.4 km/h 11.3 km/h 95 % 0.0 mm
21:22 10.0 °C 9.2 °C 1023.6 hPa NNE 3.2 km/h 11.3 km/h 95 % 0.0 mm
21:32 10.0 °C 9.1 °C 1023.9 hPa NNE 6.4 km/h 14.5 km/h 94 % 0.0 mm
21:37 10.0 °C 9.1 °C 1023.9 hPa NNE 8.0 km/h 16.1 km/h 94 % 0.0 mm
21:42 10.0 °C 9.1 °C 1023.9 hPa NE 8.0 km/h 16.1 km/h 94 % 0.0 mm
21:47 10.0 °C 9.1 °C 1023.9 hPa ENE 3.2 km/h 16.1 km/h 94 % 0.0 mm
21:52 9.9 °C 9.0 °C 1023.9 hPa NNE 4.8 km/h 12.9 km/h 94 % 0.0 mm
21:57 9.9 °C 9.0 °C 1023.9 hPa NNE 4.8 km/h 14.5 km/h 94 % 0.0 mm
22:02 9.9 °C 9.0 °C 1023.9 hPa NNE 8.0 km/h 14.5 km/h 94 % 0.0 mm
22:12 9.7 °C 8.6 °C 1023.9 hPa NE 3.2 km/h 19.3 km/h 93 % 0.0 mm
22:22 9.6 °C 8.5 °C 1023.9 hPa NNE 4.8 km/h 19.3 km/h 93 % 0.0 mm
22:32 9.4 °C 8.3 °C 1023.9 hPa NE 4.8 km/h 14.5 km/h 93 % 0.0 mm
22:37 9.3 °C 8.2 °C 1023.9 hPa NNE 6.4 km/h 17.7 km/h 93 % 0.0 mm
22:42 9.2 °C 8.1 °C 1023.9 hPa NE 12.9 km/h 17.7 km/h 93 % 0.0 mm
22:47 9.1 °C 7.9 °C 1023.9 hPa NE 3.2 km/h 14.5 km/h 92 % 0.0 mm
22:52 8.9 °C 7.7 °C 1023.9 hPa NNE 6.4 km/h 12.9 km/h 92 % 0.0 mm
23:02 8.7 °C 7.3 °C 1023.9 hPa NNE 1.6 km/h 16.1 km/h 91 % 0.0 mm
23:12 8.4 °C 7.0 °C 1023.9 hPa NNW 1.6 km/h 16.1 km/h 91 % 0.0 mm
23:17 8.4 °C 7.0 °C 1024.3 hPa NNW 1.6 km/h 12.9 km/h 91 % 0.0 mm
23:22 8.3 °C 6.9 °C 1024.3 hPa NNW 1.6 km/h 12.9 km/h 91 % 0.0 mm
23:27 8.2 °C 6.7 °C 1024.3 hPa NNW 4.8 km/h 14.5 km/h 90 % 0.0 mm
23:32 8.2 °C 6.7 °C 1024.3 hPa NNW 6.4 km/h 14.5 km/h 90 % 0.0 mm
23:37 8.2 °C 6.5 °C 1024.3 hPa NNE 3.2 km/h 14.5 km/h 89 % 0.0 mm
23:42 8.2 °C 6.5 °C 1024.3 hPa NNW 12.9 km/h 14.5 km/h 89 % 0.0 mm
23:52 8.1 °C 6.4 °C 1024.3 hPa North 6.4 km/h 16.1 km/h 89 % 0.0 mm
23:57 7.9 °C 6.2 °C 1024.3 hPa NNW 11.3 km/h 16.1 km/h 89 % 0.0 mm
Meteo18
Compliments of Weather Underground - 4 mb

Script developed by  Jim McMurry - jmcmurry@mwt.net Adapted for the template by  Wim van der Kuil - Leuven-Template.eu

You find our weather info also at:

European Weather Network

Weather Underground

Equipment we use:

Weather-station
Davis Vue

Weather-program
Meteohub

Weather-server
Raspberry PI 2 B+

Provider
1 and 1

Davis Vue

Meteohub

Raspberry PI 2 B+

1 and 1